»·PEaware :: DAL2189 KPDX-KSLC

DAL2189 :: KPDX-KSLC

FLIGHT INFORMATION

Flight Status: Arrived
Operator:
Delta Air Lines
More flights by this operator :: More flights under this callsign
Pilot: Joe P. (13940)
Aircraft: BOEING 737-700
(B737)
More flights by this aircraft type
Origin: KPDX Portland Intl
United States
Destination: KSLC Salt Lake City Intl
United States
More flights between these airports :: More routes between these airports
Route: WHAMY4 IMB J15 BOI BYI SKEES5
File this flight plan on PilotEdge
Remarks: KLAS -PBN / A1B1C1D1L1O1S1 NAV / RNVD1E2A1 DOF / 181112 REG / N389DA EET / KZLC0027 RVR / 200 PER / C
Altitude:
(Current/Filed)
370ft
Speed:
(Current/Filed)
443kts
Departed: 12-Nov-18 09:11 AM
Arrived: 12-Nov-18 10:34 AM
Distance/Time
Traveled:
546nm/1:23
Distance/Time
To Go:
Arrived

Flight Plot

Page will automatically refresh every two minutes.

Flight plan parsing failed; only flown route is shown


Map Options




Map Legend


Flown Route
Filed Route
Departure Airport
Arrival Airport
Navaid (VOR, NDB)
Fix

Horizontal Profiles

Position Reports

Time Latitude Longitude Heading Altitude Ground
Speed
12-Nov-18 08:34 45.591277 -122.594136 203 26ft 0kts
12-Nov-18 08:35 45.591277 -122.594136 203 26ft 0kts
12-Nov-18 08:36 45.591277 -122.594136 203 26ft 0kts
12-Nov-18 08:37 45.591277 -122.594136 203 26ft 0kts
12-Nov-18 08:38 45.591277 -122.594136 203 26ft 0kts
12-Nov-18 08:39 45.591277 -122.594136 203 26ft 0kts
12-Nov-18 08:40 45.591277 -122.594136 203 26ft 0kts
12-Nov-18 08:41 45.591277 -122.594136 203 26ft 0kts
12-Nov-18 08:42 45.591277 -122.594136 203 26ft 0kts
12-Nov-18 08:43 45.591277 -122.594136 203 26ft 0kts
12-Nov-18 08:44 45.591277 -122.594136 203 26ft 0kts
12-Nov-18 08:45 45.591277 -122.594136 203 26ft 0kts
12-Nov-18 08:46 45.591277 -122.594136 203 26ft 0kts
12-Nov-18 08:47 45.591277 -122.594136 203 26ft 0kts
12-Nov-18 08:48 45.591277 -122.594136 203 26ft 0kts
12-Nov-18 08:49 45.591277 -122.594136 203 26ft 0kts
12-Nov-18 08:50 45.591277 -122.594136 203 26ft 0kts
12-Nov-18 08:51 45.591277 -122.594136 203 26ft 0kts
12-Nov-18 08:52 45.591277 -122.594136 203 26ft 0kts
12-Nov-18 08:53 45.591277 -122.594136 203 26ft 0kts
12-Nov-18 08:54 45.591277 -122.594136 203 26ft 0kts
12-Nov-18 08:55 45.591277 -122.594136 203 26ft 0kts
12-Nov-18 08:56 45.591277 -122.594136 203 26ft 0kts
12-Nov-18 08:57 45.591277 -122.594136 203 26ft 0kts
12-Nov-18 08:58 45.591277 -122.594136 203 26ft 0kts
12-Nov-18 08:59 45.591277 -122.594136 203 26ft 0kts
12-Nov-18 09:00 45.591277 -122.594136 203 26ft 0kts
12-Nov-18 09:01 45.591277 -122.594136 203 26ft 0kts
12-Nov-18 09:02 45.591277 -122.594136 203 26ft 0kts
12-Nov-18 09:03 45.591277 -122.594136 203 26ft 0kts
12-Nov-18 09:04 45.591277 -122.594136 203 26ft 0kts
12-Nov-18 09:05 45.591524 -122.593996 196 26ft 2kts
12-Nov-18 09:06 45.591963 -122.594178 118 26ft 0kts
12-Nov-18 09:07 45.591963 -122.594178 118 26ft 0kts
12-Nov-18 09:08 45.591963 -122.594178 118 26ft 0kts
12-Nov-18 09:09 45.591963 -122.594176 118 26ft 0kts
12-Nov-18 09:10 45.591962 -122.594175 118 26ft 0kts
12-Nov-18 09:11 45.593372 -122.595293 300 26ft 9kts
12-Nov-18 09:12 45.593866 -122.595991 7 26ft 0kts
12-Nov-18 09:13 45.594369 -122.595461 47 26ft 7kts
12-Nov-18 09:14 45.593509 -122.592262 119 26ft 73kts
12-Nov-18 09:15 45.574567 -122.542891 119 2997ft 161kts
12-Nov-18 09:16 45.551710 -122.469253 85 5361ft 224kts
12-Nov-18 09:17 45.551989 -122.380305 106 8210ft 253kts
12-Nov-18 09:18 45.509173 -122.293329 143 10951ft 302kts
12-Nov-18 09:19 45.437058 -122.210089 137 13434ft 350kts
12-Nov-18 09:20 45.362325 -122.114966 137 16449ft 371kts
12-Nov-18 09:21 45.283061 -122.014799 137 19174ft 391kts
12-Nov-18 09:22 45.228179 -121.880256 107 21565ft 406kts
12-Nov-18 09:23 45.188941 -121.726395 107 23753ft 424kts
12-Nov-18 09:24 45.147372 -121.566085 107 25782ft 440kts
12-Nov-18 09:25 45.104853 -121.401135 107 27622ft 452kts
12-Nov-18 09:26 45.060697 -121.231610 107 29255ft 465kts
12-Nov-18 09:27 45.015178 -121.058815 106 30765ft 474kts
12-Nov-18 09:28 44.969063 -120.885220 106 32668ft 468kts
12-Nov-18 09:29 44.923191 -120.713837 106 34373ft 464kts
12-Nov-18 09:30 44.877323 -120.543688 105 35800ft 463kts
12-Nov-18 09:31 44.831454 -120.374716 105 37101ft 462kts
12-Nov-18 09:32 44.785052 -120.204960 105 37701ft 466kts
12-Nov-18 09:33 44.738797 -120.035688 104 37693ft 462kts
12-Nov-18 09:34 44.692033 -119.867454 104 37685ft 462kts
12-Nov-18 09:35 44.644840 -119.699125 105 37673ft 463kts
12-Nov-18 09:36 44.595721 -119.531771 105 37660ft 463kts
12-Nov-18 09:37 44.546322 -119.364888 105 37646ft 463kts
12-Nov-18 09:38 44.497054 -119.198078 104 37637ft 464kts
12-Nov-18 09:39 44.447718 -119.030991 104 37631ft 464kts
12-Nov-18 09:40 44.397970 -118.864443 104 37630ft 464kts
12-Nov-18 09:41 44.347713 -118.697527 104 37636ft 464kts
12-Nov-18 09:42 44.297454 -118.531763 104 37647ft 464kts
12-Nov-18 09:43 44.246849 -118.365958 104 37661ft 464kts
12-Nov-18 09:44 44.195944 -118.200254 104 37676ft 464kts
12-Nov-18 09:45 44.145045 -118.035617 103 37690ft 463kts
12-Nov-18 09:46 44.093841 -117.871046 104 37706ft 463kts
12-Nov-18 09:47 44.042450 -117.706929 104 37730ft 464kts
12-Nov-18 09:48 43.990580 -117.542314 104 37755ft 463kts
12-Nov-18 09:49 43.938861 -117.379212 103 37774ft 462kts
12-Nov-18 09:50 43.886768 -117.215938 103 37781ft 462kts
12-Nov-18 09:51 43.834558 -117.053324 103 37782ft 462kts
12-Nov-18 09:52 43.782282 -116.891462 103 37772ft 461kts
12-Nov-18 09:53 43.729523 -116.729079 103 37763ft 462kts
12-Nov-18 09:54 43.676782 -116.567198 102 37756ft 462kts
12-Nov-18 09:55 43.625023 -116.409476 103 37738ft 463kts
12-Nov-18 09:56 43.571308 -116.247747 103 37723ft 463kts
12-Nov-18 09:57 43.512113 -116.088385 108 37719ft 471kts
12-Nov-18 09:58 43.447686 -115.931901 108 37718ft 470kts
12-Nov-18 09:59 43.383678 -115.775865 107 37719ft 468kts
12-Nov-18 10:00 43.320139 -115.619303 108 37720ft 468kts
12-Nov-18 10:01 43.256493 -115.464037 107 37717ft 467kts
12-Nov-18 10:02 43.192422 -115.308796 108 37715ft 467kts
12-Nov-18 10:03 43.138879 -115.179715 108 37706ft 467kts
12-Nov-18 10:04 43.063920 -114.999997 108 37699ft 466kts
12-Nov-18 10:05 42.999411 -114.846235 108 37693ft 466kts
12-Nov-18 10:06 42.945751 -114.718937 108 37693ft 464kts
12-Nov-18 10:07 42.870341 -114.540976 108 37697ft 465kts
12-Nov-18 10:08 42.805487 -114.388766 107 37698ft 463kts
12-Nov-18 10:09 42.740912 -114.237890 107 37697ft 462kts
12-Nov-18 10:10 42.687002 -114.111929 108 37694ft 462kts
12-Nov-18 10:11 42.610796 -113.936251 108 37691ft 461kts
12-Nov-18 10:12 42.546563 -113.818126 123 37192ft 480kts
12-Nov-18 10:13 42.448909 -113.689159 125 34258ft 493kts
12-Nov-18 10:14 42.352339 -113.560872 126 31625ft 473kts
12-Nov-18 10:15 42.260269 -113.438815 127 30045ft 456kts
12-Nov-18 10:16 42.171463 -113.321770 127 28472ft 438kts
12-Nov-18 10:17 42.084924 -113.208136 128 26919ft 429kts
12-Nov-18 10:18 42.000609 -113.097332 128 25383ft 420kts
12-Nov-18 10:19 41.917759 -112.988672 128 23855ft 412kts
12-Nov-18 10:20 41.836402 -112.882425 128 22348ft 404kts
12-Nov-18 10:21 41.756264 -112.778696 128 20865ft 397kts
12-Nov-18 10:22 41.678826 -112.678659 127 19420ft 372kts
12-Nov-18 10:23 41.606961 -112.586078 127 18072ft 347kts
12-Nov-18 10:24 41.537580 -112.497214 130 16327ft 341kts
12-Nov-18 10:25 41.463586 -112.419002 127 15219ft 333kts
12-Nov-18 10:26 41.402839 -112.328145 126 14361ft 325kts
12-Nov-18 10:27 41.342802 -112.239359 126 13519ft 317kts
12-Nov-18 10:28 41.283869 -112.152946 127 12600ft 313kts
12-Nov-18 10:29 41.225987 -112.068695 128 11564ft 304kts
12-Nov-18 10:30 41.154969 -112.015573 171 10962ft 300kts
12-Nov-18 10:31 41.071988 -112.008864 175 10868ft 305kts
12-Nov-18 10:32 40.986075 -112.009035 186 9950ft 317kts
12-Nov-18 10:33 40.911503 -112.021248 156 10074ft 234kts
12-Nov-18 10:34 40.864219 -111.977816 201 7342ft 214kts
12-Nov-18 10:35 40.856753 -111.967664 286 5098ft 163kts
12-Nov-18 10:36 40.819615 -111.999861 185 4583ft 170kts
12-Nov-18 10:37 40.791127 -111.996316 98 4235ft 13kts
12-Nov-18 10:38 40.791115 -111.996221 99 4235ft 0kts
12-Nov-18 10:39 40.791114 -111.996219 99 4235ft 0kts
12-Nov-18 10:40 40.791114 -111.996217 99 4235ft 0kts
12-Nov-18 10:41 40.791007 -111.995045 91 4235ft 11kts
12-Nov-18 10:42 40.791147 -111.992849 86 4235ft 13kts
12-Nov-18 10:43 40.791424 -111.988135 84 4235ft 12kts
12-Nov-18 10:44 40.790141 -111.985959 123 4235ft 6kts
12-Nov-18 10:45 40.789937 -111.983067 87 4235ft 13kts
12-Nov-18 10:46 40.789555 -111.980140 215 4235ft 0kts
12-Nov-18 10:47 40.789127 -111.980743 226 4235ft 0kts
12-Nov-18 10:48 40.789121 -111.980752 226 4235ft 0kts
12-Nov-18 10:49 40.789121 -111.980752 226 4235ft 0kts

Navigation Log

Ident Type
Flight plan parsing failed, navigation log unavailable